Time;durP1;ratioP1;P1;durP2;ratioP2;P2;SDS_P1;SDS_P2;PMS_P1;PMS_P2;Temp;Humidity;BMP_temperature;BMP_pressure;BME280_temperature;BME280_humidity;BME280_pressure;Samples;Min_cycle;Max_cycle;Signal;HPM_P1;HPM_P2
2022/05/30 00:00:25;;;;;;;7.50;6.20;;;19.00;1.00;;;;;;5021555;28;20037;-40
2022/05/30 00:02:51;;;;;;;8.95;5.82;;;18.80;1.00;;;;;;5013651;28;20037;-42
2022/05/30 00:05:19;;;;;;;6.28;5.68;;;19.00;1.00;;;;;;5011495;28;20045;-41
2022/05/30 00:07:45;;;;;;;7.63;6.32;;;18.90;1.00;;;;;;5015556;28;20060;-41
2022/05/30 00:10:12;;;;;;;9.80;5.80;;;18.90;1.00;;;;;;5012636;28;20150;-44
2022/05/30 00:12:38;;;;;;;7.32;6.53;;;18.90;1.00;;;;;;5009749;28;20052;-42
2022/05/30 00:15:05;;;;;;;8.45;5.55;;;18.80;1.00;;;;;;5015360;28;20088;-42
2022/05/30 00:17:31;;;;;;;9.07;6.00;;;18.90;1.00;;;;;;5012110;28;20058;-41
2022/05/30 00:19:56;;;;;;;9.68;6.45;;;18.80;1.00;;;;;;5014145;28;20403;-43
2022/05/30 00:22:23;;;;;;;6.78;6.18;;;19.00;1.00;;;;;;5008556;28;20034;-47
2022/05/30 00:24:49;;;;;;;7.15;6.35;;;18.90;1.00;;;;;;5014502;28;20049;-43
2022/05/30 00:27:15;;;;;;;7.97;7.00;;;18.80;1.00;;;;;;5011933;28;20104;-42
2022/05/30 00:29:41;;;;;;;9.55;6.78;;;18.80;1.00;;;;;;5011343;28;20117;-43
2022/05/30 00:32:08;;;;;;;9.68;7.25;;;18.90;1.00;;;;;;5005498;28;20089;-43
2022/05/30 00:34:36;;;;;;;8.98;6.00;;;18.90;1.00;;;;;;5013755;28;20034;-41
2022/05/30 00:37:03;;;;;;;8.18;6.20;;;18.80;1.00;;;;;;5003245;28;20108;-40
2022/05/30 00:39:29;;;;;;;6.50;5.80;;;18.90;1.00;;;;;;5016354;28;20502;-41
2022/05/30 00:42:31;;;;;;;7.57;5.75;;;18.90;1.00;;;;;;5009531;28;20033;-42
2022/05/30 00:44:57;;;;;;;11.50;5.93;;;18.80;1.00;;;;;;4972022;28;20039;-41
2022/05/30 00:47:25;;;;;;;7.13;5.85;;;18.80;1.00;;;;;;5005410;28;20062;-41
2022/05/30 00:49:51;;;;;;;8.52;5.70;;;18.80;1.00;;;;;;5012917;28;20491;-41
2022/05/30 00:52:22;;;;;;;6.47;5.88;;;18.70;1.00;;;;;;5011678;28;20026;-40
2022/05/30 00:55:00;;;;;;;8.38;5.47;;;18.70;1.00;;;;;;5012417;28;20037;-42
2022/05/30 00:57:29;;;;;;;7.82;6.57;;;18.70;1.00;;;;;;5009515;28;20018;-41
2022/05/30 01:00:03;;;;;;;6.22;5.55;;;18.60;1.00;;;;;;5012718;28;20119;-43
2022/05/30 01:02:32;;;;;;;6.85;5.65;;;18.70;1.00;;;;;;5010690;28;20026;-44
2022/05/30 01:07:44;;;;;;;6.72;5.35;;;18.70;1.00;;;;;;5010389;28;20037;-41
2022/05/30 01:10:13;;;;;;;9.82;6.75;;;18.70;1.00;;;;;;5005884;28;20038;-42
2022/05/30 01:12:46;;;;;;;8.25;6.15;;;18.70;1.00;;;;;;5012842;28;20032;-41
2022/05/30 01:15:14;;;;;;;9.90;7.03;;;18.60;1.00;;;;;;5013388;28;20411;-40
2022/05/30 01:18:04;;;;;;;9.30;7.00;;;18.50;1.00;;;;;;5010660;28;20037;-44
2022/05/30 01:20:49;;;;;;;11.60;7.53;;;18.50;1.00;;;;;;5007082;28;20065;-41
2022/05/30 01:23:42;;;;;;;11.35;8.25;;;18.50;1.00;;;;;;5011903;28;20033;-41
2022/05/30 01:26:32;;;;;;;9.00;7.93;;;18.40;1.00;;;;;;5012072;28;20488;-41
2022/05/30 01:29:05;;;;;;;11.93;9.00;;;18.50;1.00;;;;;;5000336;28;20084;-41
2022/05/30 01:31:31;;;;;;;13.32;8.90;;;18.40;1.00;;;;;;5010819;28;20029;-41
2022/05/30 01:33:57;;;;;;;10.68;8.20;;;18.50;1.00;;;;;;5014098;28;20073;-42
2022/05/30 01:36:28;;;;;;;9.38;8.25;;;18.50;1.00;;;;;;4987674;28;20030;-40
2022/05/30 01:38:54;;;;;;;9.45;8.23;;;18.50;1.00;;;;;;5008938;28;20041;-42
2022/05/30 01:41:20;;;;;;;10.40;8.90;;;18.50;1.00;;;;;;5009762;28;20088;-40
2022/05/30 01:43:46;;;;;;;8.98;7.88;;;18.40;1.00;;;;;;5008638;28;20472;-41
2022/05/30 01:46:15;;;;;;;10.45;8.88;;;18.50;1.00;;;;;;5011090;28;20416;-40
2022/05/30 01:48:41;;;;;;;11.60;8.35;;;18.30;1.00;;;;;;5011606;28;20026;-41
2022/05/30 01:51:07;;;;;;;10.13;8.45;;;18.40;1.00;;;;;;5013518;28;20033;-44
2022/05/30 01:53:33;;;;;;;10.35;9.18;;;18.40;1.00;;;;;;4997393;28;20041;-41
2022/05/30 01:55:59;;;;;;;9.90;8.55;;;18.40;1.00;;;;;;5013576;28;20030;-41
2022/05/30 01:58:24;;;;;;;11.68;9.00;;;18.50;1.00;;;;;;5012453;28;20467;-41
2022/05/30 02:00:50;;;;;;;9.32;8.40;;;18.40;1.00;;;;;;5004913;28;20109;-43
2022/05/30 02:03:16;;;;;;;14.40;8.43;;;18.40;1.00;;;;;;5009723;28;20033;-41
2022/05/30 02:05:41;;;;;;;9.15;8.07;;;18.50;1.00;;;;;;5004540;28;20045;-41
2022/05/30 02:08:07;;;;;;;9.48;8.55;;;18.20;1.00;;;;;;5009445;28;20775;-41
2022/05/30 02:10:34;;;;;;;10.95;8.73;;;18.30;1.00;;;;;;5011028;28;20038;-40
2022/05/30 02:13:00;;;;;;;10.35;8.15;;;18.40;1.00;;;;;;5009942;28;20038;-40
2022/05/30 02:15:26;;;;;;;12.43;8.68;;;18.40;1.00;;;;;;5006308;28;20037;-40
2022/05/30 02:17:52;;;;;;;9.70;8.90;;;18.40;1.00;;;;;;5011560;28;20125;-41
2022/05/30 02:20:18;;;;;;;9.77;8.57;;;18.40;1.00;;;;;;5013533;28;20036;-41
2022/05/30 02:22:44;;;;;;;9.45;8.55;;;18.40;1.00;;;;;;5009213;28;20451;-42
2022/05/30 02:25:12;;;;;;;9.30;8.15;;;18.40;1.00;;;;;;5011554;28;20494;-41
2022/05/30 02:27:38;;;;;;;13.20;8.50;;;18.40;1.00;;;;;;5011291;28;20022;-43
2022/05/30 02:30:05;;;;;;;8.57;7.63;;;18.30;1.00;;;;;;5013932;28;20028;-41
2022/05/30 02:32:31;;;;;;;8.05;7.25;;;18.40;1.00;;;;;;5006946;28;20038;-42
2022/05/30 02:37:41;;;;;;;8.88;7.45;;;18.40;1.00;;;;;;5010437;28;20155;-41
2022/05/30 02:40:07;;;;;;;6.50;5.72;;;18.30;1.00;;;;;;5009080;28;20127;-41
2022/05/30 02:42:33;;;;;;;8.02;5.97;;;18.40;1.00;;;;;;5007137;28;20066;-40
2022/05/30 02:44:59;;;;;;;6.40;5.80;;;18.20;1.00;;;;;;5010882;28;20045;-41
2022/05/30 02:47:24;;;;;;;5.80;5.00;;;18.20;1.00;;;;;;5011831;28;20381;-41
2022/05/30 02:49:50;;;;;;;6.55;5.85;;;18.10;1.00;;;;;;5010989;28;20083;-41
2022/05/30 02:52:16;;;;;;;7.47;5.20;;;18.10;1.00;;;;;;5008992;28;20033;-41
2022/05/30 02:54:42;;;;;;;6.15;5.53;;;18.10;1.00;;;;;;5011716;28;20035;-44
2022/05/30 02:57:08;;;;;;;6.43;5.20;;;18.10;1.00;;;;;;5011207;28;20056;-41
2022/05/30 02:59:34;;;;;;;6.28;5.68;;;18.10;1.00;;;;;;5009684;28;20057;-42
2022/05/30 03:01:59;;;;;;;6.30;5.65;;;18.10;1.00;;;;;;5008415;28;20437;-42
2022/05/30 03:04:25;;;;;;;6.03;5.43;;;18.20;1.00;;;;;;5008858;28;20088;-41
2022/05/30 03:06:51;;;;;;;7.25;6.40;;;18.20;1.00;;;;;;5008029;28;20057;-41
2022/05/30 03:09:18;;;;;;;6.25;5.65;;;18.00;1.00;;;;;;5010276;28;20042;-41
2022/05/30 03:11:44;;;;;;;6.88;6.28;;;18.00;1.00;;;;;;5010103;28;20499;-41
2022/05/30 03:14:11;;;;;;;8.10;6.07;;;18.10;1.00;;;;;;5000455;28;20065;-41
2022/05/30 03:16:36;;;;;;;7.32;5.72;;;18.10;1.00;;;;;;5011162;28;20555;-40
2022/05/30 03:19:02;;;;;;;7.97;6.28;;;17.90;1.00;;;;;;5007496;28;20133;-41
2022/05/30 03:21:28;;;;;;;6.80;6.20;;;18.00;1.00;;;;;;5010049;28;20018;-42
2022/05/30 03:23:53;;;;;;;6.53;5.78;;;17.90;1.00;;;;;;5010309;28;20479;-42
2022/05/30 03:26:20;;;;;;;6.95;5.93;;;18.00;1.00;;;;;;5011750;28;20052;-42
2022/05/30 03:28:45;;;;;;;7.13;5.75;;;18.00;1.00;;;;;;5009336;28;20025;-41
2022/05/30 03:31:11;;;;;;;6.68;5.35;;;18.00;1.00;;;;;;5006668;28;20040;-43
2022/05/30 03:33:38;;;;;;;6.25;5.47;;;18.10;1.00;;;;;;5010943;28;20053;-42
2022/05/30 03:36:22;;;;;;;6.10;5.50;;;17.90;1.00;;;;;;5012391;28;20057;-41
2022/05/30 03:38:48;;;;;;;5.50;4.70;;;18.00;1.00;;;;;;5009174;28;20034;-41
2022/05/30 03:41:14;;;;;;;5.85;5.35;;;18.00;1.00;;;;;;5011843;28;20479;-42
2022/05/30 03:43:39;;;;;;;6.32;5.72;;;18.10;1.00;;;;;;5008284;28;20022;-42
2022/05/30 03:46:05;;;;;;;4.65;4.35;;;18.10;1.00;;;;;;5009699;28;20038;-41
2022/05/30 03:48:31;;;;;;;5.63;5.13;;;18.10;1.00;;;;;;5002396;28;20472;-42
2022/05/30 03:50:57;;;;;;;4.57;4.18;;;18.10;1.00;;;;;;5011365;28;20464;-46
2022/05/30 03:53:23;;;;;;;5.18;4.60;;;18.10;1.00;;;;;;5010092;28;20037;-43
2022/05/30 03:55:48;;;;;;;4.53;4.13;;;18.10;1.00;;;;;;5010190;28;20165;-43
2022/05/30 03:58:14;;;;;;;4.82;4.40;;;18.10;1.00;;;;;;5005228;28;20037;-41
2022/05/30 04:00:42;;;;;;;5.20;4.75;;;18.10;1.00;;;;;;5009521;28;20022;-41
2022/05/30 04:03:07;;;;;;;4.90;4.50;;;18.10;1.00;;;;;;5007843;28;20034;-41
2022/05/30 04:05:33;;;;;;;5.22;4.40;;;18.20;1.00;;;;;;5001751;28;20042;-43
2022/05/30 04:07:59;;;;;;;4.97;4.45;;;18.20;1.00;;;;;;5009381;28;20029;-41
2022/05/30 04:10:25;;;;;;;4.90;4.38;;;18.20;1.00;;;;;;5010390;28;20068;-43
2022/05/30 04:12:58;;;;;;;5.85;5.20;;;18.20;1.00;;;;;;5007404;28;20484;-41
2022/05/30 04:15:23;;;;;;;4.80;4.40;;;18.20;1.00;;;;;;5005154;28;20491;-41
2022/05/30 04:17:49;;;;;;;5.70;3.90;;;18.10;1.00;;;;;;5008271;28;20030;-41
2022/05/30 04:20:16;;;;;;;4.80;4.30;;;18.20;1.00;;;;;;5009191;28;20034;-41
2022/05/30 04:22:44;;;;;;;5.28;4.78;;;18.20;1.00;;;;;;5009815;28;20026;-41
2022/05/30 04:25:10;;;;;;;6.57;5.03;;;18.30;1.00;;;;;;5009283;28;20534;-41
2022/05/30 04:27:36;;;;;;;6.45;4.93;;;18.30;1.00;;;;;;5010253;28;20022;-42
2022/05/30 04:30:04;;;;;;;4.53;4.10;;;18.20;1.00;;;;;;5006561;28;20113;-43
2022/05/30 04:32:29;;;;;;;5.30;4.22;;;18.20;1.00;;;;;;5007858;28;20045;-44
2022/05/30 04:34:55;;;;;;;8.50;5.00;;;18.10;1.00;;;;;;5009234;28;20068;-42
2022/05/30 04:37:21;;;;;;;5.10;4.70;;;18.30;1.00;;;;;;5010371;28;20053;-41
2022/05/30 04:39:46;;;;;;;4.45;4.03;;;18.20;1.00;;;;;;5012422;28;20029;-41
2022/05/30 04:42:12;;;;;;;4.53;4.03;;;18.20;1.00;;;;;;5011180;28;20026;-42
2022/05/30 04:44:38;;;;;;;5.00;4.50;;;18.20;1.00;;;;;;5013463;28;20041;-45
2022/05/30 04:47:05;;;;;;;6.78;4.80;;;18.20;1.00;;;;;;5004379;28;20040;-45
2022/05/30 04:49:31;;;;;;;5.93;5.32;;;18.20;1.00;;;;;;5015210;28;20057;-42
2022/05/30 04:51:57;;;;;;;5.90;4.38;;;18.20;1.00;;;;;;5014553;28;20018;-42
2022/05/30 04:54:24;;;;;;;5.38;4.75;;;18.30;1.00;;;;;;5015031;28;20121;-44
2022/05/30 04:56:50;;;;;;;5.95;4.10;;;18.30;1.00;;;;;;5013286;28;20033;-41
2022/05/30 04:59:17;;;;;;;5.03;4.05;;;18.30;1.00;;;;;;5015027;28;20088;-41
2022/05/30 05:01:43;;;;;;;4.22;3.28;;;18.30;1.00;;;;;;5014441;28;20033;-41
2022/05/30 05:04:11;;;;;;;4.88;4.18;;;18.20;1.00;;;;;;5014382;28;20033;-42
2022/05/30 05:06:52;;;;;;;5.63;3.63;;;18.30;1.00;;;;;;5013621;28;20105;-41
2022/05/30 05:09:17;;;;;;;7.55;4.20;;;18.20;1.00;;;;;;5001992;28;20383;-41
2022/05/30 05:11:45;;;;;;;4.13;3.35;;;18.30;1.00;;;;;;5015573;28;20041;-42
2022/05/30 05:14:12;;;;;;;9.02;4.32;;;18.30;1.00;;;;;;5013594;28;20030;-43
2022/05/30 05:16:38;;;;;;;4.20;3.72;;;18.40;1.00;;;;;;5015266;28;20061;-41
2022/05/30 05:19:05;;;;;;;4.22;3.83;;;18.50;1.00;;;;;;5012343;28;20030;-41
2022/05/30 05:21:34;;;;;;;4.80;4.30;;;18.30;1.00;;;;;;5015326;28;20495;-40
2022/05/30 05:24:01;;;;;;;7.85;4.60;;;18.50;1.00;;;;;;5011768;28;20025;-41
2022/05/30 05:26:27;;;;;;;5.32;3.80;;;18.50;1.00;;;;;;5015292;28;20037;-43
2022/05/30 05:28:54;;;;;;;6.32;4.43;;;18.50;1.00;;;;;;5013738;28;20475;-42
2022/05/30 05:31:34;;;;;;;5.15;4.00;;;18.60;1.00;;;;;;5014769;28;20022;-42
2022/05/30 05:34:01;;;;;;;4.28;3.45;;;18.50;1.00;;;;;;5010467;28;20550;-40
2022/05/30 05:36:30;;;;;;;5.30;4.00;;;18.60;1.00;;;;;;5013857;28;20036;-41
2022/05/30 05:38:55;;;;;;;4.18;3.13;;;18.60;1.00;;;;;;5010756;28;20026;-41
2022/05/30 05:41:21;;;;;;;6.60;3.83;;;18.60;1.00;;;;;;5012746;28;20034;-41
2022/05/30 05:43:48;;;;;;;4.75;3.28;;;18.60;1.00;;;;;;5012704;28;20049;-41
2022/05/30 05:46:15;;;;;;;4.85;3.03;;;18.60;1.00;;;;;;5006629;28;20073;-41
2022/05/30 05:48:41;;;;;;;4.47;3.45;;;18.60;1.00;;;;;;5008321;28;20026;-43
2022/05/30 05:51:07;;;;;;;4.90;3.25;;;18.60;1.00;;;;;;5014254;28;20036;-40
2022/05/30 05:53:33;;;;;;;4.57;3.75;;;18.60;1.00;;;;;;5007891;28;20030;-40
2022/05/30 05:55:58;;;;;;;3.85;3.00;;;18.70;1.00;;;;;;5006066;28;20026;-44
2022/05/30 05:58:24;;;;;;;4.07;3.50;;;18.70;1.00;;;;;;5013187;28;20034;-41
2022/05/30 06:00:49;;;;;;;3.95;3.10;;;18.60;1.00;;;;;;5014628;28;20065;-41
2022/05/30 06:03:15;;;;;;;4.05;3.65;;;18.50;1.00;;;;;;5007008;28;20068;-42
2022/05/30 06:05:41;;;;;;;4.03;3.70;;;18.60;1.00;;;;;;5011174;28;20049;-42
2022/05/30 06:08:07;;;;;;;4.65;3.83;;;18.60;1.00;;;;;;5012366;28;20406;-43
2022/05/30 06:11:04;;;;;;;4.57;3.60;;;18.50;1.00;;;;;;5010025;28;20168;-42
2022/05/30 06:13:18;;;;;;;4.82;3.42;;;18.60;1.00;;;;;;5008371;28;20092;-42
2022/05/30 06:15:44;;;;;;;4.18;3.78;;;18.60;1.00;;;;;;5000581;28;22514;-42
2022/05/30 06:18:10;;;;;;;5.35;4.10;;;18.70;1.00;;;;;;5008091;28;20022;-41
2022/05/30 06:20:35;;;;;;;5.25;3.95;;;18.80;1.00;;;;;;5014206;28;20100;-42
2022/05/30 06:23:01;;;;;;;4.03;3.55;;;18.90;1.00;;;;;;5011767;28;20064;-41
2022/05/30 06:25:27;;;;;;;5.20;4.35;;;18.70;1.00;;;;;;5014001;28;20056;-41
2022/05/30 06:27:52;;;;;;;6.53;4.25;;;18.90;1.00;;;;;;5010658;28;20033;-41
2022/05/30 06:30:18;;;;;;;5.32;4.40;;;19.00;1.00;;;;;;5013712;28;20052;-44
2022/05/30 06:32:43;;;;;;;4.93;4.30;;;18.90;1.00;;;;;;5012534;28;20030;-41
2022/05/30 06:35:09;;;;;;;6.80;4.07;;;19.00;1.00;;;;;;5013664;28;20049;-42
2022/05/30 06:37:35;;;;;;;7.40;4.00;;;19.10;1.00;;;;;;5013245;28;20030;-41
2022/05/30 06:40:01;;;;;;;4.03;3.63;;;19.10;1.00;;;;;;5012929;28;20117;-42
2022/05/30 06:42:26;;;;;;;5.55;3.60;;;19.20;1.00;;;;;;5004936;28;20030;-44
2022/05/30 06:44:52;;;;;;;3.58;3.22;;;19.10;1.00;;;;;;5009666;28;20038;-45
2022/05/30 06:47:17;;;;;;;4.47;3.38;;;19.20;1.00;;;;;;5013226;28;20029;-48
2022/05/30 06:49:43;;;;;;;3.95;3.55;;;19.20;1.00;;;;;;5002650;28;20105;-45
2022/05/30 06:52:11;;;;;;;5.82;3.65;;;19.30;1.00;;;;;;5008967;28;20069;-44
2022/05/30 06:54:36;;;;;;;4.18;3.58;;;19.30;1.00;;;;;;5011964;28;20033;-44
2022/05/30 06:59:48;;;;;;;6.53;4.30;;;19.30;1.00;;;;;;5011115;28;20040;-45
2022/05/30 07:02:15;;;;;;;4.20;3.80;;;19.30;1.00;;;;;;5013461;28;20030;-44
2022/05/30 07:04:41;;;;;;;5.03;3.75;;;19.30;1.00;;;;;;5012567;28;20118;-43
2022/05/30 07:07:07;;;;;;;4.53;4.13;;;19.20;1.00;;;;;;5008975;28;20474;-44
2022/05/30 07:09:34;;;;;;;7.10;4.25;;;19.40;1.00;;;;;;5000938;28;20062;-42
2022/05/30 07:15:48;;;;;;;;;;;19.50;1.00;;;;;;4996971;28;20081;-41
2022/05/30 07:18:16;;;;;;;4.78;4.22;;;19.40;1.00;;;;;;4998590;28;19940;-42
2022/05/30 07:20:42;;;;;;;6.38;4.43;;;19.40;1.00;;;;;;5013122;28;20396;-42
2022/05/30 07:23:07;;;;;;;5.32;4.45;;;19.40;1.00;;;;;;5011937;28;20026;-41
2022/05/30 07:25:38;;;;;;;4.15;3.78;;;19.40;1.00;;;;;;5009826;28;20440;-41
2022/05/30 07:28:05;;;;;;;4.75;3.55;;;19.30;1.00;;;;;;5009032;28;20025;-42
2022/05/30 07:30:33;;;;;;;4.18;3.78;;;19.50;1.00;;;;;;5011959;28;20025;-43
2022/05/30 07:32:59;;;;;;;5.25;3.90;;;19.50;1.00;;;;;;5009548;28;20056;-41
2022/05/30 07:35:25;;;;;;;5.57;4.07;;;19.40;1.00;;;;;;5011574;28;20057;-41
2022/05/30 07:37:51;;;;;;;4.30;3.92;;;19.40;1.00;;;;;;5012083;28;20038;-41
2022/05/30 07:40:17;;;;;;;6.03;4.25;;;19.30;1.00;;;;;;5011455;28;20049;-41
2022/05/30 07:42:42;;;;;;;5.53;3.72;;;19.50;1.00;;;;;;5006315;28;20498;-41
2022/05/30 07:45:09;;;;;;;6.03;3.65;;;19.40;1.00;;;;;;5012487;28;20038;-41
2022/05/30 07:47:35;;;;;;;4.35;3.67;;;19.50;1.00;;;;;;5007381;28;20029;-43
2022/05/30 07:50:02;;;;;;;5.13;3.67;;;19.50;1.00;;;;;;5011562;28;20042;-40
2022/05/30 07:52:33;;;;;;;5.60;3.70;;;19.60;1.00;;;;;;5011186;28;20472;-40
2022/05/30 07:54:58;;;;;;;4.43;3.28;;;19.60;1.00;;;;;;5010055;28;20101;-40
2022/05/30 08:00:11;;;;;;;3.58;2.65;;;19.60;1.00;;;;;;5002355;28;20181;-43
2022/05/30 08:02:39;;;;;;;3.20;2.63;;;19.60;1.00;;;;;;5001298;28;20023;-43
2022/05/30 08:05:06;;;;;;;3.53;2.80;;;19.60;1.00;;;;;;5006973;28;20045;-41
2022/05/30 08:07:32;;;;;;;3.70;3.13;;;19.70;1.00;;;;;;5008300;28;20014;-41
2022/05/30 08:09:58;;;;;;;3.80;2.78;;;19.80;1.00;;;;;;5002527;28;20030;-41
2022/05/30 08:12:23;;;;;;;4.50;3.03;;;19.80;1.00;;;;;;5005662;28;20110;-40
2022/05/30 08:14:49;;;;;;;5.18;2.70;;;19.70;1.00;;;;;;4998520;28;20042;-41
2022/05/30 08:17:15;;;;;;;3.60;2.38;;;19.80;1.00;;;;;;5000602;28;20046;-40
2022/05/30 08:19:40;;;;;;;3.00;2.80;;;19.90;1.00;;;;;;5013887;28;20034;-40
2022/05/30 08:22:09;;;;;;;3.38;2.90;;;19.90;1.00;;;;;;5015001;28;20044;-42
2022/05/30 08:24:41;;;;;;;4.38;2.80;;;19.90;1.00;;;;;;5012640;28;20030;-41
2022/05/30 08:27:07;;;;;;;2.95;2.67;;;19.90;1.00;;;;;;5009710;28;20072;-42
2022/05/30 08:29:33;;;;;;;4.70;3.80;;;19.90;1.00;;;;;;5012220;28;20050;-41
2022/05/30 08:31:58;;;;;;;7.40;3.50;;;19.90;1.00;;;;;;5009343;28;20466;-40
2022/05/30 08:34:24;;;;;;;4.05;3.53;;;20.00;1.00;;;;;;5015648;28;20113;-41
2022/05/30 08:36:50;;;;;;;4.30;3.05;;;20.00;1.00;;;;;;5015126;28;20037;-44
2022/05/30 08:42:02;;;;;;;2.25;2.05;;;20.20;1.00;;;;;;5004311;28;20033;-40
2022/05/30 08:44:31;;;;;;;3.15;2.85;;;20.20;1.00;;;;;;5002652;28;20041;-40
2022/05/30 08:47:06;;;;;;;5.57;2.50;;;20.20;1.00;;;;;;5009892;28;20610;-40
2022/05/30 08:49:43;;;;;;;3.35;2.13;;;20.20;1.00;;;;;;5006992;28;20080;-41
2022/05/30 08:52:29;;;;;;;2.30;2.17;;;20.20;1.00;;;;;;5002424;28;20156;-39
2022/05/30 08:55:05;;;;;;;4.20;2.78;;;20.30;1.00;;;;;;5004522;28;20033;-43
2022/05/30 08:57:55;;;;;;;2.83;2.58;;;20.30;1.00;;;;;;5003173;28;20046;-40
2022/05/30 09:00:29;;;;;;;3.30;2.60;;;20.40;1.00;;;;;;5005628;28;20079;-43
2022/05/30 09:02:55;;;;;;;;;;;20.50;1.00;;;;;;5002982;28;20026;-42
2022/05/30 09:05:28;;;;;;;2.67;2.47;;;20.40;1.00;;;;;;5004526;28;19918;-40
2022/05/30 09:07:58;;;;;;;3.47;3.00;;;20.50;1.00;;;;;;5002314;28;20093;-40
2022/05/30 09:10:30;;;;;;;2.63;2.42;;;20.50;1.00;;;;;;5001342;28;20025;-41
2022/05/30 09:13:05;;;;;;;3.53;2.40;;;20.70;1.00;;;;;;5004151;28;20023;-42
2022/05/30 09:15:35;;;;;;;3.67;2.33;;;20.80;1.00;;;;;;5002911;28;20041;-40
2022/05/30 09:18:04;;;;;;;2.50;2.30;;;20.90;1.00;;;;;;5003657;28;20324;-43
2022/05/30 09:20:31;;;;;;;2.90;2.45;;;21.00;1.00;;;;;;5002702;28;20095;-40
2022/05/30 09:22:57;;;;;;;3.75;2.15;;;21.00;1.00;;;;;;5002791;28;20038;-40
2022/05/30 09:28:15;;;;;;;2.33;1.80;;;21.10;1.00;;;;;;5001859;28;20115;-40
2022/05/30 09:30:48;;;;;;;4.50;2.10;;;21.10;1.00;;;;;;5002677;28;20133;-40
2022/05/30 09:33:20;;;;;;;2.78;1.80;;;21.20;1.00;;;;;;5002284;28;20402;-39
2022/05/30 09:35:45;;;;;;;1.90;1.80;;;21.20;1.00;;;;;;5002190;28;20486;-41
2022/05/30 09:38:18;;;;;;;2.47;1.90;;;21.40;1.00;;;;;;5002303;28;20030;-41
2022/05/30 09:40:49;;;;;;;3.40;1.77;;;21.50;1.00;;;;;;5007976;28;20042;-43
2022/05/30 09:43:25;;;;;;;1.92;1.83;;;21.40;1.00;;;;;;5007838;28;20033;-45
2022/05/30 09:45:51;;;;;;;3.13;1.52;;;21.40;1.00;;;;;;5000742;28;20045;-40
2022/05/30 09:48:19;;;;;;;1.73;1.48;;;21.50;1.00;;;;;;5006333;28;20033;-41
2022/05/30 09:50:51;;;;;;;2.00;1.55;;;21.70;1.00;;;;;;5002467;28;20057;-41
2022/05/30 09:53:38;;;;;;;2.03;1.40;;;21.90;1.00;;;;;;5002110;28;20428;-46
2022/05/30 09:56:04;;;;;;;1.67;1.58;;;21.80;1.00;;;;;;5002244;28;20073;-43
2022/05/30 09:58:59;;;;;;;1.60;1.50;;;21.70;1.00;;;;;;5002208;28;20018;-41
2022/05/30 10:01:26;;;;;;;2.58;1.73;;;21.90;1.00;;;;;;4997361;28;20100;-40
2022/05/30 10:03:56;;;;;;;1.63;1.52;;;22.10;1.00;;;;;;5003701;28;20431;-40
2022/05/30 10:06:27;;;;;;;2.28;1.55;;;22.30;1.00;;;;;;5014102;28;20044;-41
2022/05/30 10:09:17;;;;;;;2.10;1.50;;;22.50;1.00;;;;;;5013703;28;20061;-39
2022/05/30 10:11:52;;;;;;;2.03;1.30;;;22.40;1.00;;;;;;5012946;28;20069;-40
2022/05/30 10:14:27;;;;;;;1.23;1.23;;;22.30;1.00;;;;;;5009596;28;20598;-40
2022/05/30 10:16:58;;;;;;;4.72;1.67;;;22.30;1.00;;;;;;5014101;28;20112;-43
2022/05/30 10:19:31;;;;;;;2.40;1.85;;;22.30;1.00;;;;;;5013495;28;20100;-40
2022/05/30 10:28:14;;;;;;;2.20;1.52;;;22.40;1.00;;;;;;5011565;28;20041;-41
2022/05/30 10:30:46;;;;;;;2.00;1.70;;;22.40;1.00;;;;;;5009346;28;20045;-41
2022/05/30 10:33:23;;;;;;;2.50;1.98;;;22.50;1.00;;;;;;5003372;28;20582;-41
2022/05/30 10:36:07;;;;;;;3.00;2.05;;;22.50;1.00;;;;;;5013918;28;20029;-43
2022/05/30 10:39:04;;;;;;;3.28;2.35;;;22.60;1.00;;;;;;5013666;28;20105;-43
2022/05/30 10:41:33;;;;;;;2.42;1.80;;;22.60;1.00;;;;;;5013380;28;20061;-41
2022/05/30 10:44:29;;;;;;;3.65;2.55;;;22.60;1.00;;;;;;5012295;28;20069;-43
2022/05/30 10:47:03;;;;;;;2.70;2.50;;;22.50;1.00;;;;;;5010321;28;20046;-43
2022/05/30 10:49:40;;;;;;;2.78;2.05;;;22.40;1.00;;;;;;5013963;28;20053;-44
2022/05/30 10:52:08;;;;;;;2.20;2.00;;;22.80;1.00;;;;;;5013597;28;20033;-41
2022/05/30 10:54:57;;;;;;;2.65;2.45;;;23.00;1.00;;;;;;5013549;28;20032;-42
2022/05/30 10:57:32;;;;;;;4.05;2.35;;;23.10;1.00;;;;;;5012619;28;20026;-41
2022/05/30 11:00:10;;;;;;;2.30;2.10;;;23.30;1.00;;;;;;5012841;28;20021;-40
2022/05/30 11:02:48;;;;;;;2.53;2.05;;;23.30;1.00;;;;;;5012591;28;20034;-42
2022/05/30 11:05:23;;;;;;;3.58;2.35;;;23.50;1.00;;;;;;5013086;28;20037;-42
2022/05/30 11:08:27;;;;;;;2.40;2.20;;;23.30;1.00;;;;;;5006647;28;20116;-44
2022/05/30 11:11:02;;;;;;;3.78;2.78;;;23.50;1.00;;;;;;5004493;28;20073;-40
2022/05/30 11:13:39;;;;;;;2.70;2.35;;;23.30;1.00;;;;;;5005310;28;20037;-40
2022/05/30 11:16:21;;;;;;;4.72;2.83;;;23.30;1.00;;;;;;5009912;28;20074;-40
2022/05/30 11:18:57;;;;;;;4.43;2.40;;;23.70;1.00;;;;;;5008062;28;20029;-41
2022/05/30 11:21:52;;;;;;;2.58;2.38;;;24.00;1.00;;;;;;5003892;28;20030;-44
2022/05/30 11:24:18;;;;;;;4.75;2.92;;;24.20;1.00;;;;;;5003308;28;20065;-43
2022/05/30 11:26:53;;;;;;;4.07;2.35;;;24.60;1.00;;;;;;5007487;28;20059;-43
2022/05/30 11:29:49;;;;;;;3.17;2.97;;;24.80;1.00;;;;;;5008254;28;20022;-41
2022/05/30 11:32:36;;;;;;;2.75;2.58;;;24.90;1.00;;;;;;5005351;28;20049;-46
2022/05/30 11:35:33;;;;;;;4.68;2.50;;;24.80;1.00;;;;;;5005716;28;20034;-41
2022/05/30 11:38:36;;;;;;;2.92;2.67;;;24.70;1.00;;;;;;5003432;28;20026;-44
2022/05/30 11:41:34;;;;;;;2.78;2.55;;;24.50;1.00;;;;;;5008569;28;20060;-41
2022/05/30 11:44:24;;;;;;;3.13;2.80;;;24.50;1.00;;;;;;5009627;28;20060;-41
2022/05/30 11:47:08;;;;;;;3.35;3.05;;;24.60;1.00;;;;;;5002736;28;20034;-44
2022/05/30 11:49:36;;;;;;;3.40;3.10;;;24.60;1.00;;;;;;5008680;28;20041;-43
2022/05/30 11:52:12;;;;;;;4.82;3.08;;;24.50;1.00;;;;;;5003723;28;20373;-41
2022/05/30 11:55:04;;;;;;;3.38;3.08;;;24.50;1.00;;;;;;5009767;28;20031;-41
2022/05/30 11:57:54;;;;;;;4.65;4.25;;;24.20;1.00;;;;;;4990365;28;20160;-41
2022/05/30 12:00:20;;;;;;;5.60;3.05;;;24.00;1.00;;;;;;5009824;28;20492;-41
2022/05/30 12:02:57;;;;;;;3.30;3.10;;;23.90;1.00;;;;;;5003063;28;20023;-43
2022/05/30 12:05:41;;;;;;;3.58;3.20;;;24.00;1.00;;;;;;5004083;28;20038;-41
2022/05/30 12:08:24;;;;;;;3.47;3.15;;;24.10;1.00;;;;;;5007224;28;21287;-44
2022/05/30 12:11:14;;;;;;;3.20;2.88;;;23.80;1.00;;;;;;5007355;28;20030;-42
2022/05/30 12:14:01;;;;;;;4.43;3.05;;;24.00;1.00;;;;;;5006926;28;20644;-42
2022/05/30 12:16:49;;;;;;;6.28;4.43;;;24.00;1.00;;;;;;5005233;28;20077;-40
2022/05/30 12:24:53;;;;;;;7.65;4.13;;;23.90;1.00;;;;;;5008486;28;20104;-43
2022/05/30 12:27:32;;;;;;;3.78;3.58;;;23.90;1.00;;;;;;5006503;28;20451;-40
2022/05/30 12:30:00;;;;;;;3.75;3.45;;;24.10;1.00;;;;;;5005431;28;20486;-42
2022/05/30 12:32:36;;;;;;;3.83;3.35;;;24.70;1.00;;;;;;5009075;28;20049;-44
2022/05/30 12:35:15;;;;;;;7.68;3.08;;;26.40;1.00;;;;;;5007972;28;20508;-44
2022/05/30 12:37:47;;;;;;;3.20;3.00;;;27.10;1.00;;;;;;5005551;28;20017;-44
2022/05/30 12:40:27;;;;;;;3.60;3.30;;;26.00;1.00;;;;;;5003512;28;20061;-45
2022/05/30 12:43:22;;;;;;;3.67;3.38;;;25.60;1.00;;;;;;5001461;28;20080;-45
2022/05/30 12:46:08;;;;;;;4.35;4.00;;;25.60;1.00;;;;;;5006068;28;20515;-44
2022/05/30 12:48:43;;;;;;;3.83;3.00;;;28.00;1.00;;;;;;5006731;28;20468;-44
2022/05/30 12:51:08;;;;;;;4.80;3.30;;;27.70;1.00;;;;;;5012587;28;20554;-41
2022/05/30 12:53:59;;;;;;;5.30;3.70;;;26.90;1.00;;;;;;5004126;28;20054;-47
2022/05/30 12:56:39;;;;;;;3.85;3.50;;;27.00;1.00;;;;;;5014796;28;20543;-40
2022/05/30 12:59:17;;;;;;;5.53;4.03;;;27.60;1.00;;;;;;5016001;28;20033;-41
2022/05/30 13:01:42;;;;;;;4.18;3.70;;;28.30;1.00;;;;;;5015204;28;20021;-42
2022/05/30 13:04:26;;;;;;;8.90;3.80;;;28.90;1.00;;;;;;5015447;28;20371;-41
2022/05/30 13:06:53;;;;;;;5.47;3.53;;;28.60;1.00;;;;;;5013634;28;20517;-44
2022/05/30 13:09:36;;;;;;;5.10;3.85;;;27.30;1.00;;;;;;5014565;28;20100;-43
2022/05/30 13:12:10;;;;;;;4.72;4.30;;;26.80;1.00;;;;;;5001208;28;20463;-45
2022/05/30 13:15:03;;;;;;;4.53;3.83;;;26.30;1.00;;;;;;5014134;28;20599;-42
2022/05/30 13:17:41;;;;;;;4.37;3.73;;;26.00;1.00;;;;;;4999720;28;20069;-41
2022/05/30 13:20:18;;;;;;;4.45;3.97;;;25.80;1.00;;;;;;5010530;28;20280;-46
2022/05/30 13:22:54;;;;;;;4.30;4.00;;;25.70;1.00;;;;;;5006986;28;20023;-41
2022/05/30 13:25:28;;;;;;;4.68;3.65;;;25.60;1.00;;;;;;5008952;28;20029;-43
2022/05/30 13:27:55;;;;;;;;;;;25.60;1.00;;;;;;5015781;28;20026;-41
2022/05/30 13:30:27;;;;;;;5.53;3.90;;;25.30;1.00;;;;;;5010038;28;19915;-41
2022/05/30 13:32:53;;;;;;;4.20;3.90;;;25.30;1.00;;;;;;5014654;28;20392;-41
2022/05/30 13:35:20;;;;;;;3.92;3.63;;;25.20;1.00;;;;;;5009914;28;20026;-40
2022/05/30 13:37:50;;;;;;;4.75;4.13;;;25.40;1.00;;;;;;5000064;28;20142;-43
2022/05/30 13:40:23;;;;;;;4.30;3.90;;;25.50;1.00;;;;;;5003101;28;20026;-41
2022/05/30 13:42:56;;;;;;;4.03;3.38;;;25.80;1.00;;;;;;5013419;28;20026;-41
2022/05/30 13:45:34;;;;;;;3.70;3.37;;;26.10;1.00;;;;;;5012503;28;20518;-40
2022/05/30 13:48:03;;;;;;;4.70;3.22;;;26.10;1.00;;;;;;5014990;28;20040;-41